createdAt,value
2023-01-21T00:02:04.395Z,20.10
2023-01-21T00:07:05.840Z,20.10
2023-01-21T00:12:07.240Z,20.10
2023-01-21T00:17:08.629Z,20.10
2023-01-21T00:22:10.099Z,20.10
2023-01-21T00:27:11.541Z,20.10
2023-01-21T00:32:12.961Z,20.10
2023-01-21T00:37:14.362Z,20.10
2023-01-21T00:42:15.758Z,20.10
2023-01-21T00:47:17.168Z,20.10
2023-01-21T00:52:18.564Z,20.10
2023-01-21T00:57:19.959Z,20.10
2023-01-21T01:02:21.516Z,20.20
2023-01-21T01:07:22.945Z,20.30
2023-01-21T01:12:24.367Z,20.30
2023-01-21T01:17:25.766Z,20.30
2023-01-21T01:22:27.185Z,20.30
2023-01-21T01:27:28.601Z,20.30
2023-01-21T01:32:29.998Z,20.20
2023-01-21T01:37:31.402Z,20.20
2023-01-21T01:42:32.795Z,20.20
2023-01-21T01:47:34.207Z,20.20
2023-01-21T01:52:35.761Z,20.10
2023-01-21T01:57:37.167Z,20.10
2023-01-21T02:02:38.819Z,20.10
2023-01-21T02:07:40.263Z,20.10
2023-01-21T02:12:41.679Z,20.10
2023-01-21T02:17:43.094Z,20.00
2023-01-21T02:22:44.510Z,20.00
2023-01-21T02:27:45.929Z,20.00
2023-01-21T02:32:47.324Z,19.90
2023-01-21T02:37:48.739Z,20.00
2023-01-21T02:42:50.147Z,19.90
2023-01-21T02:47:51.552Z,19.90
2023-01-21T02:52:53.007Z,19.90
2023-01-21T02:57:54.448Z,19.90
2023-01-21T03:02:56.062Z,19.90
2023-01-21T03:07:57.456Z,19.90
2023-01-21T03:12:58.896Z,19.90
2023-01-21T03:18:00.331Z,19.90
2023-01-21T03:23:01.728Z,19.90
2023-01-21T03:28:03.136Z,19.90
2023-01-21T03:33:04.538Z,19.90
2023-01-21T03:38:06.242Z,19.90
2023-01-21T03:43:07.637Z,19.90
2023-01-21T03:48:09.100Z,19.90
2023-01-21T03:53:10.508Z,19.90
2023-01-21T03:58:11.915Z,19.90
2023-01-21T04:03:13.366Z,19.90
2023-01-21T04:08:14.859Z,19.80
2023-01-21T04:13:16.272Z,19.80
2023-01-21T04:18:17.749Z,19.80
2023-01-21T04:23:19.152Z,19.80
2023-01-21T04:28:20.577Z,19.80
2023-01-21T04:33:21.989Z,19.80
2023-01-21T04:38:23.489Z,19.80
2023-01-21T04:43:24.905Z,19.80
2023-01-21T04:48:26.303Z,19.80
2023-01-21T04:53:27.712Z,19.80
2023-01-21T04:58:29.126Z,19.80
2023-01-21T05:03:30.535Z,19.80
2023-01-21T05:08:31.935Z,19.90
2023-01-21T05:13:33.338Z,19.90
2023-01-21T05:18:34.743Z,19.90
2023-01-21T05:23:36.158Z,19.90
2023-01-21T05:28:37.577Z,19.90
2023-01-21T05:33:38.979Z,19.90
2023-01-21T05:38:40.384Z,19.90
2023-01-21T05:43:41.785Z,19.90
2023-01-21T05:48:43.190Z,19.90
2023-01-21T05:53:44.736Z,19.90
2023-01-21T05:58:46.150Z,19.90
2023-01-21T06:03:47.566Z,19.80
2023-01-21T06:08:48.977Z,19.80
2023-01-21T06:13:50.407Z,19.80
2023-01-21T06:18:51.831Z,19.80
2023-01-21T06:23:53.275Z,19.80
2023-01-21T06:28:55.833Z,19.80
2023-01-21T06:33:57.284Z,19.80
2023-01-21T06:38:58.685Z,19.70
2023-01-21T06:44:00.130Z,19.70
2023-01-21T06:49:01.566Z,19.70
2023-01-21T06:54:03.156Z,19.70
2023-01-21T06:59:04.562Z,19.70
2023-01-21T07:04:05.986Z,19.80
2023-01-21T07:09:07.401Z,19.80
2023-01-21T07:14:08.796Z,19.80
2023-01-21T07:19:10.235Z,19.80
2023-01-21T07:24:11.645Z,19.80
2023-01-21T07:29:13.042Z,19.80
2023-01-21T07:34:14.513Z,19.80
2023-01-21T07:39:16.069Z,19.70
2023-01-21T07:44:17.584Z,19.70
2023-01-21T07:49:18.987Z,19.70
2023-01-21T07:54:20.395Z,19.70
2023-01-21T07:59:21.812Z,19.70
2023-01-21T08:04:23.245Z,19.70
2023-01-21T08:09:24.640Z,19.70
2023-01-21T08:14:26.057Z,19.70
2023-01-21T08:19:27.463Z,19.70
2023-01-21T08:24:28.871Z,19.70
2023-01-21T08:29:30.275Z,19.70
2023-01-21T08:34:31.770Z,19.70
2023-01-21T08:39:33.390Z,19.70
2023-01-21T08:44:34.964Z,19.70
2023-01-21T08:49:36.781Z,19.80
2023-01-21T08:54:38.383Z,19.90
2023-01-21T08:59:39.793Z,19.90
2023-01-21T09:04:41.214Z,19.90
2023-01-21T09:09:42.627Z,19.90
2023-01-21T09:14:44.019Z,19.90
2023-01-21T09:19:45.431Z,19.90
2023-01-21T09:24:46.824Z,19.90
2023-01-21T09:29:48.222Z,19.80
2023-01-21T09:34:49.631Z,19.80
2023-01-21T09:39:51.039Z,19.80
2023-01-21T09:44:52.440Z,19.80
2023-01-21T09:49:53.845Z,19.70
2023-01-21T09:54:55.252Z,19.70
2023-01-21T09:59:56.656Z,19.70
2023-01-21T10:04:58.070Z,19.70
2023-01-21T10:09:59.479Z,19.70
2023-01-21T10:15:00.921Z,19.70
2023-01-21T10:20:02.373Z,19.70
2023-01-21T10:25:03.763Z,19.70
2023-01-21T10:30:07.424Z,19.70
2023-01-21T10:35:08.947Z,19.70
2023-01-21T10:40:10.348Z,19.70
2023-01-21T10:45:11.775Z,19.70
2023-01-21T10:50:13.825Z,19.70
2023-01-21T10:55:15.609Z,19.70
2023-01-21T11:00:17.165Z,19.70
2023-01-21T11:05:18.899Z,19.70
2023-01-21T11:10:20.422Z,19.80
2023-01-21T11:15:21.817Z,19.70
2023-01-21T11:20:23.231Z,19.70
2023-01-21T11:25:24.638Z,19.70
2023-01-21T11:30:40.612Z,19.70
2023-01-21T11:35:47.399Z,19.70
2023-01-21T11:40:48.802Z,19.70
2023-01-21T11:45:50.258Z,19.70
2023-01-21T11:50:51.706Z,19.70
2023-01-21T11:55:53.121Z,19.70
2023-01-21T12:00:54.530Z,19.70
2023-01-21T12:05:55.926Z,19.60
2023-01-21T12:10:57.337Z,19.60
2023-01-21T12:15:58.951Z,19.70
2023-01-21T12:21:00.475Z,19.70
2023-01-21T12:26:01.886Z,19.70
2023-01-21T12:31:03.374Z,19.70
2023-01-21T12:36:04.871Z,19.70
2023-01-21T12:41:06.281Z,19.70
2023-01-21T12:46:07.717Z,19.70
2023-01-21T12:51:09.227Z,19.70
2023-01-21T12:56:10.660Z,19.70
2023-01-21T13:01:12.134Z,19.70
2023-01-21T13:06:13.572Z,19.60
2023-01-21T13:11:15.014Z,19.70
2023-01-21T13:16:16.460Z,19.70
2023-01-21T13:21:17.878Z,19.70
2023-01-21T13:26:19.273Z,19.70
2023-01-21T13:31:20.763Z,19.60
2023-01-21T13:36:22.196Z,19.60
2023-01-21T13:41:23.600Z,19.60
2023-01-21T13:46:25.001Z,19.60
2023-01-21T13:51:26.533Z,19.60
2023-01-21T13:56:28.003Z,19.60
2023-01-21T14:01:29.400Z,19.60
2023-01-21T14:06:30.800Z,19.70
2023-01-21T14:11:32.199Z,19.70
2023-01-21T14:16:33.658Z,19.70
2023-01-21T14:21:35.093Z,19.70
2023-01-21T14:26:36.509Z,19.70
2023-01-21T14:31:37.947Z,19.70
2023-01-21T14:36:39.402Z,19.70
2023-01-21T14:41:40.829Z,19.70
2023-01-21T14:46:42.298Z,19.70
2023-01-21T14:51:43.710Z,19.70
2023-01-21T14:56:45.124Z,19.70
2023-01-21T15:01:46.565Z,19.70
2023-01-21T15:06:47.999Z,19.70
2023-01-21T15:11:49.420Z,19.60
2023-01-21T15:16:50.918Z,19.60
2023-01-21T15:21:52.433Z,19.60
2023-01-21T15:26:53.845Z,19.60
2023-01-21T15:31:55.372Z,19.60
2023-01-21T15:36:56.929Z,19.60
2023-01-21T15:41:58.350Z,19.60
2023-01-21T15:46:59.789Z,19.70
2023-01-21T15:52:01.176Z,19.70
2023-01-21T15:57:02.606Z,19.70
2023-01-21T16:02:04.050Z,19.70
2023-01-21T16:07:05.480Z,19.70
2023-01-21T16:12:06.891Z,19.70
2023-01-21T16:17:08.321Z,19.70
2023-01-21T16:22:09.720Z,19.70
2023-01-21T16:27:11.124Z,19.70
2023-01-21T16:32:12.515Z,19.70
2023-01-21T16:37:13.918Z,19.60
2023-01-21T16:42:15.312Z,19.60
2023-01-21T16:47:16.724Z,19.60
2023-01-21T16:52:18.162Z,19.60
2023-01-21T16:57:19.566Z,19.60
2023-01-21T17:02:21.061Z,19.60
2023-01-21T17:07:22.569Z,19.60
2023-01-21T17:12:23.977Z,19.60
2023-01-21T17:17:25.384Z,19.60
2023-01-21T17:22:26.791Z,19.60
2023-01-21T17:27:28.186Z,19.70
2023-01-21T17:32:29.576Z,19.70
2023-01-21T17:37:31.025Z,19.80
2023-01-21T17:42:32.454Z,19.80
2023-01-21T17:47:33.854Z,19.80
2023-01-21T17:52:35.265Z,19.80
2023-01-21T17:57:36.696Z,19.80
2023-01-21T18:02:38.229Z,19.80
2023-01-21T18:07:39.667Z,19.70
2023-01-21T18:12:41.132Z,19.70
2023-01-21T18:17:42.560Z,19.70
2023-01-21T18:22:43.983Z,19.70
2023-01-21T18:27:45.388Z,19.70
2023-01-21T18:32:46.815Z,19.60
2023-01-21T18:37:48.262Z,19.60
2023-01-21T18:42:49.740Z,19.60
2023-01-21T18:47:51.189Z,19.60
2023-01-21T18:52:52.600Z,19.60
2023-01-21T18:57:54.001Z,19.60
2023-01-21T19:02:55.421Z,19.60
2023-01-21T19:07:56.821Z,19.60
2023-01-21T19:12:58.238Z,19.60
2023-01-21T19:17:59.659Z,19.70
2023-01-21T19:23:01.059Z,19.70
2023-01-21T19:28:02.452Z,19.70
2023-01-21T19:33:03.881Z,19.70
2023-01-21T19:38:05.363Z,19.70
2023-01-21T19:43:06.808Z,19.70
2023-01-21T19:48:08.208Z,19.70
2023-01-21T19:53:09.644Z,19.60
2023-01-21T19:58:11.067Z,19.60
2023-01-21T20:03:12.518Z,19.60
2023-01-21T20:08:13.956Z,19.60
2023-01-21T20:13:15.488Z,19.60
2023-01-21T20:18:16.909Z,19.60
2023-01-21T20:23:18.335Z,19.60
2023-01-21T20:28:19.741Z,19.60
2023-01-21T20:33:21.147Z,19.60
2023-01-21T20:38:22.550Z,19.60
2023-01-21T20:43:23.952Z,19.60
2023-01-21T20:48:25.414Z,19.60
2023-01-21T20:53:26.833Z,19.60
2023-01-21T20:58:28.276Z,19.60
2023-01-21T21:03:29.736Z,19.70
2023-01-21T21:08:31.136Z,19.70
2023-01-21T21:13:32.537Z,19.70
2023-01-21T21:18:33.928Z,19.60
2023-01-21T21:23:35.327Z,19.70
2023-01-21T21:28:36.725Z,19.70
2023-01-21T21:33:38.131Z,19.60
2023-01-21T21:38:39.864Z,19.60
2023-01-21T21:43:41.384Z,19.60
2023-01-21T21:48:42.862Z,19.60
2023-01-21T21:53:44.287Z,19.60
2023-01-21T21:58:45.789Z,19.60
2023-01-21T22:03:47.201Z,19.60
2023-01-21T22:08:48.613Z,19.60
2023-01-21T22:13:50.505Z,19.60
2023-01-21T22:18:51.960Z,19.50
2023-01-21T22:23:53.362Z,19.50
2023-01-21T22:28:54.787Z,19.60
2023-01-21T22:33:56.408Z,19.60
2023-01-21T22:38:57.836Z,19.70
2023-01-21T22:43:59.322Z,19.70
2023-01-21T22:49:00.721Z,19.70
2023-01-21T22:54:02.219Z,19.70
2023-01-21T22:59:03.651Z,19.70
2023-01-21T23:04:05.073Z,19.70
2023-01-21T23:09:09.242Z,19.70
2023-01-21T23:14:12.869Z,19.70
2023-01-21T23:19:14.290Z,19.70
2023-01-21T23:24:15.710Z,19.70
2023-01-21T23:29:17.135Z,19.60
2023-01-21T23:34:18.943Z,19.60
2023-01-21T23:39:20.326Z,19.60
2023-01-21T23:44:21.724Z,19.60
2023-01-21T23:49:23.119Z,19.60
2023-01-21T23:54:24.510Z,19.60
2023-01-21T23:59:25.913Z,19.60
